createdAt,value
2023-03-06T00:01:00.395Z,1.22
2023-03-06T00:03:28.655Z,1.22
2023-03-06T00:05:58.943Z,1.20
2023-03-06T00:16:07.241Z,1.25
2023-03-06T00:18:35.899Z,1.25
2023-03-06T00:21:11.542Z,1.27
2023-03-06T00:23:41.399Z,1.26
2023-03-06T00:26:10.206Z,1.27
2023-03-06T00:28:40.822Z,1.26
2023-03-06T00:31:15.100Z,1.26
2023-03-06T00:33:45.715Z,1.26
2023-03-06T00:36:14.496Z,1.26
2023-03-06T00:38:42.675Z,1.27
2023-03-06T00:41:11.712Z,1.26
2023-03-06T00:43:40.660Z,1.26
2023-03-06T00:46:09.685Z,1.27
2023-03-06T00:48:38.327Z,1.27
2023-03-06T00:51:13.485Z,1.26
2023-03-06T00:53:42.173Z,1.26
2023-03-06T00:56:10.861Z,1.26
2023-03-06T00:58:39.017Z,1.26
2023-03-06T01:01:07.319Z,1.25
2023-03-06T01:03:36.096Z,1.25
2023-03-06T01:06:06.602Z,1.25
2023-03-06T01:08:38.004Z,1.24
2023-03-06T01:11:07.630Z,1.23
2023-03-06T01:13:35.793Z,1.19
2023-03-06T01:16:08.877Z,1.17
2023-03-06T01:18:38.160Z,1.15
2023-03-06T01:21:06.512Z,1.13
2023-03-06T01:23:36.631Z,1.12
2023-03-06T01:26:05.061Z,1.11
2023-03-06T01:28:35.294Z,1.10
2023-03-06T01:31:04.687Z,1.09
2023-03-06T01:33:34.302Z,1.08
2023-03-06T01:36:07.053Z,1.09
2023-03-06T01:38:35.607Z,1.10
2023-03-06T01:41:04.081Z,1.09
2023-03-06T01:43:36.718Z,1.09
2023-03-06T01:46:44.165Z,1.09
2023-03-06T01:49:20.311Z,1.09
2023-03-06T01:51:53.130Z,1.08
2023-03-06T01:54:22.963Z,1.07
2023-03-06T01:56:54.815Z,1.07
2023-03-06T01:59:22.896Z,1.07
2023-03-06T02:01:51.800Z,1.08
2023-03-06T02:04:20.074Z,1.08
2023-03-06T02:06:48.393Z,1.10
2023-03-06T02:09:18.198Z,1.10
2023-03-06T02:11:51.336Z,1.08
2023-03-06T02:14:19.796Z,1.07
2023-03-06T02:16:49.629Z,1.06
2023-03-06T02:19:31.476Z,1.05
2023-03-06T02:22:00.054Z,1.05
2023-03-06T02:24:50.443Z,1.05
2023-03-06T02:27:19.333Z,1.06
2023-03-06T02:29:47.401Z,1.05
2023-03-06T02:32:16.132Z,1.04
2023-03-06T02:34:47.988Z,1.03
2023-03-06T02:37:16.263Z,1.01
2023-03-06T02:39:48.063Z,1.00
2023-03-06T02:42:21.208Z,0.98
2023-03-06T02:44:49.239Z,0.95
2023-03-06T02:47:17.515Z,0.91
2023-03-06T02:49:47.646Z,0.86
2023-03-06T02:52:16.042Z,0.80
2023-03-06T02:54:44.416Z,0.74
2023-03-06T02:57:15.274Z,0.68
2023-03-06T02:59:43.681Z,0.64
2023-03-06T03:02:12.770Z,0.63
2023-03-06T03:04:42.218Z,0.64
2023-03-06T03:07:17.137Z,0.64
2023-03-06T03:09:45.313Z,0.64
2023-03-06T03:12:16.275Z,0.64
2023-03-06T03:14:48.566Z,0.63
2023-03-06T03:17:17.380Z,0.60
2023-03-06T03:19:48.432Z,0.58
2023-03-06T03:22:17.444Z,0.56
2023-03-06T03:24:48.174Z,0.55
2023-03-06T03:27:16.769Z,0.55
2023-03-06T03:29:46.494Z,0.54
2023-03-06T03:32:14.823Z,0.55
2023-03-06T03:34:43.287Z,0.57
2023-03-06T03:37:11.676Z,0.58
2023-03-06T03:39:39.602Z,0.57
2023-03-06T03:45:00.678Z,0.60
2023-03-06T03:47:29.791Z,0.58
2023-03-06T03:49:59.014Z,0.59
2023-03-06T03:52:27.594Z,0.59
2023-03-06T03:54:56.061Z,0.59
2023-03-06T03:57:24.532Z,0.58
2023-03-06T03:59:53.669Z,0.57
2023-03-06T04:02:44.225Z,0.53
2023-03-06T04:05:22.805Z,0.48
2023-03-06T04:07:54.997Z,0.43
2023-03-06T04:10:23.383Z,0.40
2023-03-06T04:12:51.948Z,0.37
2023-03-06T04:15:24.718Z,0.31
2023-03-06T04:17:53.854Z,0.27
2023-03-06T04:20:26.144Z,0.23
2023-03-06T04:22:54.831Z,0.18
2023-03-06T04:25:23.733Z,0.14
2023-03-06T04:27:52.325Z,0.14
2023-03-06T04:30:21.121Z,0.15
2023-03-06T04:32:49.513Z,0.17
2023-03-06T04:35:17.835Z,0.20
2023-03-06T04:37:54.003Z,0.23
2023-03-06T04:40:29.603Z,0.24
2023-03-06T04:42:59.704Z,0.25
2023-03-06T04:45:28.663Z,0.26
2023-03-06T04:48:00.582Z,0.27
2023-03-06T04:50:32.543Z,0.27
2023-03-06T04:53:03.624Z,0.26
2023-03-06T04:55:33.004Z,0.25
2023-03-06T04:58:01.108Z,0.26
2023-03-06T05:00:31.511Z,0.27
2023-03-06T05:03:00.268Z,0.27
2023-03-06T05:05:28.319Z,0.24
2023-03-06T05:07:56.605Z,0.21
2023-03-06T05:10:27.087Z,0.20
2023-03-06T05:12:56.464Z,0.21
2023-03-06T05:15:24.671Z,0.21
2023-03-06T05:17:56.628Z,0.24
2023-03-06T05:20:24.819Z,0.28
2023-03-06T05:22:56.085Z,0.30
2023-03-06T05:25:24.466Z,0.32
2023-03-06T05:27:52.772Z,0.33
2023-03-06T05:30:23.185Z,0.35
2023-03-06T05:32:52.274Z,0.38
2023-03-06T05:35:22.078Z,0.39
2023-03-06T05:37:50.203Z,0.41
2023-03-06T05:43:42.270Z,0.49
2023-03-06T05:46:11.528Z,0.50
2023-03-06T05:48:39.882Z,0.53
2023-03-06T05:51:08.038Z,0.54
2023-03-06T05:53:36.766Z,0.55
2023-03-06T05:56:10.853Z,0.51
2023-03-06T05:58:41.630Z,0.47
2023-03-06T06:01:14.793Z,0.47
2023-03-06T06:03:43.759Z,0.47
2023-03-06T06:06:13.144Z,0.43
2023-03-06T06:08:44.083Z,0.41
2023-03-06T06:11:12.901Z,0.42
2023-03-06T06:13:45.217Z,0.43
2023-03-06T06:16:16.498Z,0.44
2023-03-06T06:18:45.321Z,0.45
2023-03-06T06:21:18.897Z,0.49
2023-03-06T06:23:47.892Z,0.51
2023-03-06T06:26:16.183Z,0.54
2023-03-06T06:28:44.584Z,0.60
2023-03-06T06:31:13.427Z,0.69
2023-03-06T06:33:42.923Z,0.78
2023-03-06T06:36:20.730Z,0.84
2023-03-06T06:38:50.844Z,0.85
2023-03-06T06:44:13.883Z,0.91
2023-03-06T06:49:33.746Z,1.01
2023-03-06T06:52:02.201Z,1.05
2023-03-06T06:54:30.254Z,1.05
2023-03-06T06:56:58.382Z,1.04
2023-03-06T06:59:27.039Z,1.03
2023-03-06T07:01:55.263Z,1.05
2023-03-06T07:04:23.564Z,1.07
2023-03-06T07:06:55.775Z,1.09
2023-03-06T07:09:24.250Z,1.12
2023-03-06T07:11:53.608Z,1.15
2023-03-06T07:14:21.922Z,1.19
2023-03-06T07:16:50.039Z,1.25
2023-03-06T07:19:21.051Z,1.27
2023-03-06T07:21:49.247Z,1.28
2023-03-06T07:24:17.612Z,1.28
2023-03-06T07:26:47.373Z,1.27
2023-03-06T07:29:16.019Z,1.27
2023-03-06T07:31:44.272Z,1.29
2023-03-06T07:34:13.105Z,1.29
2023-03-06T07:36:41.518Z,1.32
2023-03-06T07:39:10.008Z,1.36
2023-03-06T07:41:40.947Z,1.42
2023-03-06T07:44:13.227Z,1.48
2023-03-06T07:46:41.669Z,1.56
2023-03-06T07:49:09.871Z,1.65
2023-03-06T07:51:39.509Z,1.69
2023-03-06T07:54:08.024Z,1.73
2023-03-06T07:56:36.950Z,1.79
2023-03-06T07:59:05.069Z,1.85
2023-03-06T08:01:33.368Z,1.89
2023-03-06T08:04:02.147Z,1.92
2023-03-06T08:06:30.412Z,1.97
2023-03-06T08:08:58.899Z,2.03
2023-03-06T08:11:28.662Z,2.11
2023-03-06T08:13:58.557Z,2.22
2023-03-06T08:16:29.351Z,2.28
2023-03-06T08:18:58.526Z,2.33
2023-03-06T08:21:27.774Z,2.39
2023-03-06T08:23:56.263Z,2.52
2023-03-06T08:26:26.623Z,2.64
2023-03-06T08:28:55.649Z,2.77
2023-03-06T08:31:32.740Z,2.90
2023-03-06T08:34:03.501Z,3.01
2023-03-06T08:36:37.336Z,3.10
2023-03-06T08:39:06.082Z,3.15
2023-03-06T08:41:34.788Z,3.20
2023-03-06T08:44:04.012Z,3.29
2023-03-06T08:46:33.028Z,3.41
2023-03-06T08:49:02.579Z,3.56
2023-03-06T08:51:31.408Z,3.72
2023-03-06T08:54:05.231Z,3.88
2023-03-06T08:56:34.147Z,4.03
2023-03-06T08:59:04.618Z,4.19
2023-03-06T09:01:35.117Z,4.30
2023-03-06T09:04:23.026Z,4.40
2023-03-06T09:09:25.515Z,4.54
2023-03-06T09:11:54.997Z,4.60
2023-03-06T09:14:23.592Z,4.64
2023-03-06T09:16:52.293Z,4.67
2023-03-06T09:19:20.485Z,4.73
2023-03-06T09:21:49.220Z,4.69
2023-03-06T09:24:17.742Z,4.64
2023-03-06T09:26:47.974Z,4.61
2023-03-06T09:29:17.704Z,4.60
2023-03-06T09:31:48.465Z,4.63
2023-03-06T09:34:17.092Z,4.58
2023-03-06T09:36:56.411Z,4.48
2023-03-06T09:39:25.696Z,4.37
2023-03-06T09:41:54.446Z,4.26
2023-03-06T09:44:27.820Z,4.18
2023-03-06T09:47:18.158Z,4.09
2023-03-06T09:49:52.824Z,4.06
2023-03-06T09:52:30.266Z,4.08
2023-03-06T09:55:01.311Z,4.13
2023-03-06T09:57:36.872Z,4.12
2023-03-06T10:00:12.747Z,4.16
2023-03-06T10:02:42.753Z,4.22
2023-03-06T10:05:22.140Z,4.26
2023-03-06T10:08:00.885Z,4.25
2023-03-06T10:10:55.054Z,4.22
2023-03-06T10:13:26.410Z,4.18
2023-03-06T10:15:58.781Z,4.20
2023-03-06T10:18:27.236Z,4.29
2023-03-06T10:21:13.360Z,4.45
2023-03-06T10:24:12.726Z,4.63
2023-03-06T10:27:03.518Z,4.70
2023-03-06T10:30:04.687Z,4.66
2023-03-06T10:32:47.491Z,4.66
2023-03-06T10:35:21.942Z,4.71
2023-03-06T10:37:50.120Z,4.78
2023-03-06T10:40:21.008Z,4.92
2023-03-06T10:42:56.073Z,5.09
2023-03-06T10:45:40.565Z,5.25
2023-03-06T10:48:22.510Z,5.47
2023-03-06T10:50:51.063Z,5.67
2023-03-06T10:53:26.893Z,5.84
2023-03-06T10:55:56.995Z,5.89
2023-03-06T10:58:27.826Z,5.93
2023-03-06T11:01:08.112Z,6.02
2023-03-06T11:03:36.668Z,6.07
2023-03-06T11:06:13.458Z,6.07
2023-03-06T11:08:44.495Z,6.13
2023-03-06T11:11:15.904Z,6.17
2023-03-06T11:13:55.772Z,6.14
2023-03-06T11:16:27.275Z,6.05
2023-03-06T11:19:01.260Z,5.93
2023-03-06T11:21:31.707Z,5.86
2023-03-06T11:24:35.826Z,5.90
2023-03-06T11:27:17.113Z,5.99
2023-03-06T11:29:47.304Z,6.07
2023-03-06T11:32:16.725Z,6.06
2023-03-06T11:34:45.467Z,6.01
2023-03-06T11:37:23.818Z,6.02
2023-03-06T11:39:54.804Z,6.03
2023-03-06T11:42:28.243Z,6.04
2023-03-06T11:45:26.153Z,6.07
2023-03-06T11:48:18.891Z,6.16
2023-03-06T11:50:57.207Z,6.26
2023-03-06T11:53:55.228Z,6.31
2023-03-06T11:56:49.549Z,6.33
2023-03-06T12:00:01.261Z,6.39
2023-03-06T12:02:32.974Z,6.49
2023-03-06T12:05:10.966Z,6.59
2023-03-06T12:07:57.773Z,6.70
2023-03-06T12:10:34.905Z,6.83
2023-03-06T12:13:29.989Z,6.96
2023-03-06T12:16:16.873Z,7.13
2023-03-06T12:19:17.696Z,7.23
2023-03-06T12:21:48.828Z,7.29
2023-03-06T12:24:23.614Z,7.30
2023-03-06T12:26:57.546Z,7.30
2023-03-06T12:29:40.479Z,7.28
2023-03-06T12:32:21.829Z,7.26
2023-03-06T12:34:56.824Z,7.21
2023-03-06T12:37:45.915Z,7.20
2023-03-06T12:40:40.165Z,7.22
2023-03-06T12:43:11.843Z,7.26
2023-03-06T12:45:40.285Z,7.27
2023-03-06T12:48:25.829Z,7.26
2023-03-06T12:50:54.226Z,7.21
2023-03-06T12:53:27.685Z,7.15
2023-03-06T12:56:02.118Z,7.16
2023-03-06T12:58:30.820Z,7.15
2023-03-06T13:01:27.574Z,7.15
2023-03-06T13:04:17.198Z,7.12
2023-03-06T13:07:40.260Z,7.11
2023-03-06T13:10:10.517Z,7.12
2023-03-06T13:12:43.126Z,7.14
2023-03-06T13:15:39.365Z,7.16
2023-03-06T13:18:21.887Z,7.18
2023-03-06T13:20:51.936Z,7.18
2023-03-06T13:23:34.175Z,7.17
2023-03-06T13:26:09.248Z,7.14
2023-03-06T13:29:26.652Z,7.09
2023-03-06T13:31:54.852Z,7.10
2023-03-06T13:34:36.386Z,7.11
2023-03-06T13:37:18.549Z,7.11
2023-03-06T13:39:56.907Z,7.09
2023-03-06T13:42:38.003Z,7.10
2023-03-06T13:45:15.090Z,7.12
2023-03-06T13:50:44.388Z,7.18
2023-03-06T13:53:46.818Z,7.23
2023-03-06T13:56:24.080Z,7.30
2023-03-06T13:59:02.757Z,7.33
2023-03-06T14:02:05.184Z,7.34
2023-03-06T14:04:43.119Z,7.33
2023-03-06T14:07:42.456Z,7.31
2023-03-06T14:10:14.982Z,7.27
2023-03-06T14:12:55.687Z,7.22
2023-03-06T14:15:45.367Z,7.17
2023-03-06T14:18:14.775Z,7.12
2023-03-06T14:21:01.164Z,7.08
2023-03-06T14:23:34.441Z,7.05
2023-03-06T14:26:24.409Z,7.03
2023-03-06T14:28:52.596Z,7.00
2023-03-06T14:31:41.724Z,6.97
2023-03-06T14:34:22.097Z,6.88
2023-03-06T14:37:01.454Z,6.75
2023-03-06T14:39:40.716Z,6.63
2023-03-06T14:42:21.878Z,6.47
2023-03-06T14:45:01.470Z,6.33
2023-03-06T14:47:36.420Z,6.19
2023-03-06T14:50:27.495Z,6.07
2023-03-06T14:53:14.596Z,5.92
2023-03-06T14:55:50.415Z,5.81
2023-03-06T14:58:22.061Z,5.75
2023-03-06T15:00:51.384Z,5.70
2023-03-06T15:03:23.086Z,5.67
2023-03-06T15:05:51.164Z,5.64
2023-03-06T15:08:22.695Z,5.62
2023-03-06T15:11:09.176Z,5.59
2023-03-06T15:13:39.443Z,5.56
2023-03-06T15:16:13.823Z,5.53
2023-03-06T15:18:54.410Z,5.49
2023-03-06T15:21:23.117Z,5.43
2023-03-06T15:23:52.348Z,5.38
2023-03-06T15:26:34.050Z,5.32
2023-03-06T15:29:11.220Z,5.27
2023-03-06T15:31:42.549Z,5.22
2023-03-06T15:34:10.654Z,5.18
2023-03-06T15:36:46.341Z,5.14
2023-03-06T15:39:32.838Z,5.09
2023-03-06T15:42:16.321Z,5.06
2023-03-06T15:44:47.930Z,5.03
2023-03-06T15:47:16.515Z,5.00
2023-03-06T15:49:49.044Z,4.96
2023-03-06T15:52:17.696Z,4.92
2023-03-06T15:54:46.411Z,4.88
2023-03-06T15:57:25.420Z,4.83
2023-03-06T15:59:53.846Z,4.81
2023-03-06T16:02:22.648Z,4.78
2023-03-06T16:04:51.542Z,4.75
2023-03-06T16:07:20.746Z,4.72
2023-03-06T16:09:50.783Z,4.71
2023-03-06T16:12:20.537Z,4.69
2023-03-06T16:14:48.951Z,4.68
2023-03-06T16:17:17.356Z,4.65
2023-03-06T16:19:45.936Z,4.63
2023-03-06T16:22:14.493Z,4.62
2023-03-06T16:24:43.417Z,4.61
2023-03-06T16:27:18.777Z,4.59
2023-03-06T16:29:49.454Z,4.58
2023-03-06T16:32:17.806Z,4.57
2023-03-06T16:34:46.267Z,4.57
2023-03-06T16:37:16.772Z,4.57
2023-03-06T16:39:44.999Z,4.57
2023-03-06T16:42:13.414Z,4.58
2023-03-06T16:44:41.602Z,4.59
2023-03-06T16:47:12.989Z,4.60
2023-03-06T16:49:42.415Z,4.61
2023-03-06T16:52:11.073Z,4.62
2023-03-06T16:54:44.575Z,4.62
2023-03-06T16:57:14.348Z,4.61
2023-03-06T16:59:42.618Z,4.60
2023-03-06T17:02:12.037Z,4.59
2023-03-06T17:04:40.217Z,4.57
2023-03-06T17:07:08.449Z,4.56
2023-03-06T17:09:37.273Z,4.54
2023-03-06T17:12:05.685Z,4.51
2023-03-06T17:14:34.716Z,4.47
2023-03-06T17:17:03.197Z,4.44
2023-03-06T17:19:35.943Z,4.39
2023-03-06T17:22:05.283Z,4.36
2023-03-06T17:24:35.490Z,4.33
2023-03-06T17:27:06.863Z,4.30
2023-03-06T17:29:35.416Z,4.27
2023-03-06T17:32:03.762Z,4.24
2023-03-06T17:34:32.607Z,4.22
2023-03-06T17:37:01.460Z,4.19
2023-03-06T17:39:33.733Z,4.17
2023-03-06T17:42:03.387Z,4.14
2023-03-06T17:44:32.478Z,4.12
2023-03-06T17:47:00.573Z,4.10
2023-03-06T17:49:28.863Z,4.07
2023-03-06T17:51:59.712Z,4.05
2023-03-06T17:54:29.904Z,4.02
2023-03-06T17:57:01.122Z,3.98
2023-03-06T17:59:30.552Z,3.95
2023-03-06T18:01:59.982Z,3.92
2023-03-06T18:04:28.453Z,3.88
2023-03-06T18:06:58.410Z,3.85
2023-03-06T18:09:27.383Z,3.82
2023-03-06T18:11:55.560Z,3.77
2023-03-06T18:14:24.494Z,3.73
2023-03-06T18:16:54.078Z,3.68
2023-03-06T18:19:22.582Z,3.63
2023-03-06T18:21:51.667Z,3.60
2023-03-06T18:24:21.825Z,3.56
2023-03-06T18:26:50.918Z,3.52
2023-03-06T18:29:22.613Z,3.49
2023-03-06T18:31:51.489Z,3.46
2023-03-06T18:34:19.650Z,3.42
2023-03-06T18:36:51.537Z,3.39
2023-03-06T18:39:21.467Z,3.36
2023-03-06T18:41:53.649Z,3.33
2023-03-06T18:44:22.139Z,3.30
2023-03-06T18:46:50.235Z,3.27
2023-03-06T18:49:19.254Z,3.24
2023-03-06T18:51:51.167Z,3.22
2023-03-06T18:54:19.698Z,3.20
2023-03-06T18:56:48.058Z,3.19
2023-03-06T18:59:36.005Z,3.17
2023-03-06T19:02:04.923Z,3.16
2023-03-06T19:04:33.421Z,3.16
2023-03-06T19:07:02.375Z,3.16
2023-03-06T19:09:30.875Z,3.15
2023-03-06T19:12:00.672Z,3.13
2023-03-06T19:14:30.324Z,3.14
2023-03-06T19:16:58.708Z,3.14
2023-03-06T19:19:32.586Z,3.13
2023-03-06T19:22:01.093Z,3.12
2023-03-06T19:24:36.672Z,3.11
2023-03-06T19:27:05.184Z,3.11
2023-03-06T19:29:33.410Z,3.12
2023-03-06T19:32:01.686Z,3.12
2023-03-06T19:34:30.440Z,3.12
2023-03-06T19:37:03.265Z,3.12
2023-03-06T19:39:33.293Z,3.13
2023-03-06T19:42:04.684Z,3.14
2023-03-06T19:44:34.869Z,3.14
2023-03-06T19:47:03.079Z,3.15
2023-03-06T19:49:33.036Z,3.16
2023-03-06T19:52:01.315Z,3.18
2023-03-06T19:54:32.411Z,3.18
2023-03-06T19:57:01.556Z,3.20
2023-03-06T19:59:33.562Z,3.21
2023-03-06T20:02:01.706Z,3.21
2023-03-06T20:04:34.625Z,3.23
2023-03-06T20:07:04.869Z,3.23
2023-03-06T20:09:35.729Z,3.23
2023-03-06T20:12:08.361Z,3.22
2023-03-06T20:14:37.239Z,3.21
2023-03-06T20:17:05.334Z,3.20
2023-03-06T20:19:34.550Z,3.19
2023-03-06T20:22:03.359Z,3.20
2023-03-06T20:24:31.548Z,3.18
2023-03-06T20:26:59.544Z,3.17
2023-03-06T20:29:28.476Z,3.18
2023-03-06T20:32:02.545Z,3.16
2023-03-06T20:34:32.105Z,3.15
2023-03-06T20:37:00.300Z,3.15
2023-03-06T20:39:30.484Z,3.16
2023-03-06T20:42:00.038Z,3.17
2023-03-06T20:44:28.445Z,3.19
2023-03-06T20:46:56.786Z,3.20
2023-03-06T20:49:27.154Z,3.21
2023-03-06T20:51:56.928Z,3.20
2023-03-06T20:54:26.038Z,3.20
2023-03-06T20:56:54.703Z,3.19
2023-03-06T20:59:25.158Z,3.18
2023-03-06T21:01:53.359Z,3.17
2023-03-06T21:04:22.569Z,3.17
2023-03-06T21:06:52.704Z,3.17
2023-03-06T21:09:21.023Z,3.18
2023-03-06T21:11:52.145Z,3.18
2023-03-06T21:14:20.601Z,3.18
2023-03-06T21:16:48.839Z,3.18
2023-03-06T21:19:20.042Z,3.18
2023-03-06T21:21:48.426Z,3.17
2023-03-06T21:24:16.939Z,3.16
2023-03-06T21:28:17.282Z,3.19
2023-03-06T21:30:44.898Z,3.15
2023-03-06T21:33:12.328Z,3.14
2023-03-06T21:35:39.830Z,3.13
2023-03-06T21:38:07.296Z,3.10
2023-03-06T21:40:35.821Z,3.09
2023-03-06T21:43:03.335Z,3.09
2023-03-06T21:45:31.410Z,3.10
2023-03-06T21:48:01.017Z,3.11
2023-03-06T21:50:29.090Z,3.14
2023-03-06T21:52:55.861Z,3.16
2023-03-06T21:55:23.195Z,3.20
2023-03-06T21:57:51.171Z,3.23
2023-03-06T22:00:18.949Z,3.26
2023-03-06T22:02:46.240Z,3.28
2023-03-06T22:05:13.389Z,3.28
2023-03-06T22:07:40.755Z,3.28
2023-03-06T22:10:11.325Z,3.28
2023-03-06T22:12:39.223Z,3.28
2023-03-06T22:15:07.004Z,3.27
2023-03-06T22:17:34.481Z,3.25
2023-03-06T22:20:01.505Z,3.24
2023-03-06T22:22:30.017Z,3.24
2023-03-06T22:24:58.064Z,3.22
2023-03-06T22:27:25.023Z,3.20
2023-03-06T22:29:52.585Z,3.17
2023-03-06T22:32:19.867Z,3.14
2023-03-06T22:34:46.816Z,3.12
2023-03-06T22:37:33.486Z,3.09
2023-03-06T22:40:01.119Z,3.04
2023-03-06T22:42:28.808Z,3.01
2023-03-06T22:44:55.802Z,2.97
2023-03-06T22:47:22.778Z,2.96
2023-03-06T22:57:22.470Z,2.90
2023-03-06T22:59:50.843Z,2.87
2023-03-06T23:02:23.452Z,2.84
2023-03-06T23:04:53.388Z,2.80
2023-03-06T23:07:22.376Z,2.78
2023-03-06T23:09:52.216Z,2.76
2023-03-06T23:12:41.679Z,2.70
2023-03-06T23:15:28.986Z,2.59
2023-03-06T23:18:16.448Z,2.49
2023-03-06T23:21:11.727Z,2.39
2023-03-06T23:23:59.014Z,2.35
2023-03-06T23:26:29.222Z,2.32
2023-03-06T23:28:57.780Z,2.28
2023-03-06T23:31:28.954Z,2.25
2023-03-06T23:33:58.553Z,2.22
2023-03-06T23:36:26.737Z,2.18
2023-03-06T23:38:55.431Z,2.15
2023-03-06T23:41:24.224Z,2.11
2023-03-06T23:43:55.042Z,2.05
2023-03-06T23:46:23.675Z,2.02
2023-03-06T23:48:52.236Z,1.97
2023-03-06T23:51:21.683Z,1.92
2023-03-06T23:53:58.294Z,1.87
2023-03-06T23:56:27.371Z,1.86
2023-03-06T23:58:55.976Z,1.83
